map of UIB home
UIB - Airport
Location
City:  Quibdó, Chocó, Colombia
Name:El Caraño Airport
ICAO:SKUI
IATA:UIB

Details
Type:Airport (Aerodrome, Airfield)
Latitude:5°41'27"N (5.690797)
Longitude:76°38'28"W (-76.641218)
Elevation:204 ft (62 m)
Variation:5.88°W (WMM2015 magnetic declination)
-0.15° annual change
Runways:1
Longest:4593 × 98 ft (1400 × 30 m), paved

Time
Time Zone:UTC-5
Local Time:

Weather
METAR:SKUI 151200Z 00000KT 6000 BKN015 BKN080 24/24 A2990 RMK HZ

Related Locations
Nearby:
Farthest:WIPD: 12360 mi / 19892 km
Pasar Bandingagung [Banding Agung], SS, ID

Find:

   beyond  
but within

Other Information
Maps:
NOTAMs:
Links:
Sources:

  
  • flag of Colombia
  • flag of Chocó
  

Sectional Chart

Flight Planning
at skyvector.com

Satellite Image

Google Maps Satellite view

 

Copyright © 2004-2018 Karl L. Swartz. All rights reserved.
The Great Circle Mapper name and logo are trademarks of the Great Circle Mapper.
All other trademarks mentioned herein belong to their respective owners.
Please see credits for attibutions and further copyright information.

  Follow gcmap on Facebook Follow gcmap on Twitter Follow gcmap on Google+ GCmap on LinkedIn

hCard Microformat

Geo Microformat